sensor_id;sensor_type;location;lat;lon;timestamp;P1;durP1;ratioP1;P2;durP2;ratioP2
66739;SDS011;53653;52.188;8.602;2024-02-21T00:01:17;39.58;;;14.77;;
66739;SDS011;53653;52.188;8.602;2024-02-21T00:10:34;34.25;;;13.32;;
66739;SDS011;53653;52.188;8.602;2024-02-21T00:13:01;36.33;;;13.90;;
66739;SDS011;53653;52.188;8.602;2024-02-21T00:15:26;40.20;;;15.40;;
66739;SDS011;53653;52.188;8.602;2024-02-21T00:17:52;38.95;;;15.43;;
66739;SDS011;53653;52.188;8.602;2024-02-21T00:20:17;36.30;;;13.03;;
66739;SDS011;53653;52.188;8.602;2024-02-21T00:22:43;38.60;;;13.93;;
66739;SDS011;53653;52.188;8.602;2024-02-21T00:25:09;29.88;;;10.32;;
66739;SDS011;53653;52.188;8.602;2024-02-21T00:27:35;42.60;;;14.88;;
66739;SDS011;53653;52.188;8.602;2024-02-21T00:30:00;32.40;;;12.80;;
66739;SDS011;53653;52.188;8.602;2024-02-21T00:32:26;35.40;;;12.95;;
66739;SDS011;53653;52.188;8.602;2024-02-21T00:34:51;35.77;;;13.77;;
66739;SDS011;53653;52.188;8.602;2024-02-21T00:37:17;39.97;;;14.73;;
66739;SDS011;53653;52.188;8.602;2024-02-21T00:39:42;40.13;;;14.60;;
66739;SDS011;53653;52.188;8.602;2024-02-21T00:42:08;35.87;;;13.60;;
66739;SDS011;53653;52.188;8.602;2024-02-21T00:44:33;34.70;;;13.60;;
66739;SDS011;53653;52.188;8.602;2024-02-21T00:46:58;39.30;;;14.33;;
66739;SDS011;53653;52.188;8.602;2024-02-21T00:49:24;33.67;;;12.83;;
66739;SDS011;53653;52.188;8.602;2024-02-21T00:51:49;33.35;;;13.68;;
66739;SDS011;53653;52.188;8.602;2024-02-21T00:54:16;34.60;;;13.17;;
66739;SDS011;53653;52.188;8.602;2024-02-21T00:56:42;33.88;;;13.85;;
66739;SDS011;53653;52.188;8.602;2024-02-21T00:59:08;37.83;;;13.37;;
66739;SDS011;53653;52.188;8.602;2024-02-21T01:01:33;37.78;;;14.52;;
66739;SDS011;53653;52.188;8.602;2024-02-21T01:03:59;32.97;;;13.23;;
66739;SDS011;53653;52.188;8.602;2024-02-21T01:06:25;31.45;;;12.00;;
66739;SDS011;53653;52.188;8.602;2024-02-21T01:08:50;36.90;;;14.07;;
66739;SDS011;53653;52.188;8.602;2024-02-21T01:11:16;31.47;;;12.90;;
66739;SDS011;53653;52.188;8.602;2024-02-21T01:13:42;36.17;;;13.23;;
66739;SDS011;53653;52.188;8.602;2024-02-21T01:16:07;35.37;;;13.53;;
66739;SDS011;53653;52.188;8.602;2024-02-21T01:18:33;31.80;;;12.32;;
66739;SDS011;53653;52.188;8.602;2024-02-21T01:20:59;30.00;;;12.50;;
66739;SDS011;53653;52.188;8.602;2024-02-21T01:23:24;30.90;;;12.20;;
66739;SDS011;53653;52.188;8.602;2024-02-21T01:25:50;31.73;;;12.77;;
66739;SDS011;53653;52.188;8.602;2024-02-21T01:28:16;36.45;;;13.82;;
66739;SDS011;53653;52.188;8.602;2024-02-21T01:30:41;31.43;;;12.83;;
66739;SDS011;53653;52.188;8.602;2024-02-21T01:33:07;32.53;;;12.50;;
66739;SDS011;53653;52.188;8.602;2024-02-21T01:35:33;36.20;;;13.67;;
66739;SDS011;53653;52.188;8.602;2024-02-21T01:37:59;34.92;;;13.55;;
66739;SDS011;53653;52.188;8.602;2024-02-21T01:40:25;34.00;;;13.40;;
66739;SDS011;53653;52.188;8.602;2024-02-21T01:42:50;27.13;;;11.07;;
66739;SDS011;53653;52.188;8.602;2024-02-21T01:45:18;30.88;;;12.77;;
66739;SDS011;53653;52.188;8.602;2024-02-21T01:47:44;35.83;;;12.93;;
66739;SDS011;53653;52.188;8.602;2024-02-21T01:50:09;31.60;;;13.02;;
66739;SDS011;53653;52.188;8.602;2024-02-21T01:52:36;42.77;;;14.20;;
66739;SDS011;53653;52.188;8.602;2024-02-21T01:55:02;34.60;;;13.05;;
66739;SDS011;53653;52.188;8.602;2024-02-21T01:57:29;34.17;;;13.80;;
66739;SDS011;53653;52.188;8.602;2024-02-21T01:59:55;30.17;;;11.50;;
66739;SDS011;53653;52.188;8.602;2024-02-21T02:02:20;37.37;;;12.53;;
66739;SDS011;53653;52.188;8.602;2024-02-21T02:04:46;35.95;;;13.18;;
66739;SDS011;53653;52.188;8.602;2024-02-21T02:07:11;36.33;;;12.97;;
66739;SDS011;53653;52.188;8.602;2024-02-21T02:09:37;39.33;;;14.40;;
66739;SDS011;53653;52.188;8.602;2024-02-21T02:12:02;35.37;;;14.00;;
66739;SDS011;53653;52.188;8.602;2024-02-21T02:14:28;31.45;;;13.85;;
66739;SDS011;53653;52.188;8.602;2024-02-21T02:16:53;37.40;;;14.00;;
66739;SDS011;53653;52.188;8.602;2024-02-21T02:19:19;33.73;;;12.40;;
66739;SDS011;53653;52.188;8.602;2024-02-21T02:21:46;29.13;;;12.00;;
66739;SDS011;53653;52.188;8.602;2024-02-21T02:24:18;36.22;;;14.02;;
66739;SDS011;53653;52.188;8.602;2024-02-21T02:26:45;36.47;;;12.60;;
66739;SDS011;53653;52.188;8.602;2024-02-21T02:29:10;37.53;;;12.83;;
66739;SDS011;53653;52.188;8.602;2024-02-21T02:31:36;35.38;;;13.13;;
66739;SDS011;53653;52.188;8.602;2024-02-21T02:34:02;35.15;;;12.80;;
66739;SDS011;53653;52.188;8.602;2024-02-21T02:36:29;34.37;;;11.73;;
66739;SDS011;53653;52.188;8.602;2024-02-21T02:38:56;33.67;;;13.45;;
66739;SDS011;53653;52.188;8.602;2024-02-21T02:41:22;36.10;;;14.20;;
66739;SDS011;53653;52.188;8.602;2024-02-21T02:43:47;41.77;;;13.63;;
66739;SDS011;53653;52.188;8.602;2024-02-21T02:46:12;35.22;;;13.80;;
66739;SDS011;53653;52.188;8.602;2024-02-21T02:48:38;34.17;;;12.90;;
66739;SDS011;53653;52.188;8.602;2024-02-21T02:51:03;35.47;;;11.73;;
66739;SDS011;53653;52.188;8.602;2024-02-21T02:53:29;32.30;;;12.93;;
66739;SDS011;53653;52.188;8.602;2024-02-21T02:55:54;30.73;;;12.63;;
66739;SDS011;53653;52.188;8.602;2024-02-21T02:58:20;45.90;;;13.83;;
66739;SDS011;53653;52.188;8.602;2024-02-21T03:00:45;35.58;;;13.07;;
66739;SDS011;53653;52.188;8.602;2024-02-21T03:03:11;37.73;;;13.33;;
66739;SDS011;53653;52.188;8.602;2024-02-21T03:05:36;37.60;;;13.23;;
66739;SDS011;53653;52.188;8.602;2024-02-21T03:08:02;34.07;;;14.33;;
66739;SDS011;53653;52.188;8.602;2024-02-21T03:10:32;35.63;;;13.80;;
66739;SDS011;53653;52.188;8.602;2024-02-21T03:13:00;41.80;;;15.23;;
66739;SDS011;53653;52.188;8.602;2024-02-21T03:15:26;35.17;;;12.97;;
66739;SDS011;53653;52.188;8.602;2024-02-21T03:17:51;40.33;;;14.67;;
66739;SDS011;53653;52.188;8.602;2024-02-21T03:20:16;40.27;;;14.83;;
66739;SDS011;53653;52.188;8.602;2024-02-21T03:22:42;38.60;;;15.00;;
66739;SDS011;53653;52.188;8.602;2024-02-21T03:25:08;38.58;;;14.40;;
66739;SDS011;53653;52.188;8.602;2024-02-21T03:27:35;35.53;;;14.10;;
66739;SDS011;53653;52.188;8.602;2024-02-21T03:30:00;36.17;;;14.02;;
66739;SDS011;53653;52.188;8.602;2024-02-21T03:32:26;35.23;;;13.30;;
66739;SDS011;53653;52.188;8.602;2024-02-21T03:34:53;37.50;;;14.23;;
66739;SDS011;53653;52.188;8.602;2024-02-21T03:37:19;36.30;;;12.82;;
66739;SDS011;53653;52.188;8.602;2024-02-21T03:39:45;36.20;;;13.20;;
66739;SDS011;53653;52.188;8.602;2024-02-21T03:42:10;36.85;;;13.65;;
66739;SDS011;53653;52.188;8.602;2024-02-21T03:44:36;37.00;;;13.57;;
66739;SDS011;53653;52.188;8.602;2024-02-21T03:47:02;37.63;;;12.93;;
66739;SDS011;53653;52.188;8.602;2024-02-21T03:49:27;35.88;;;11.95;;
66739;SDS011;53653;52.188;8.602;2024-02-21T03:51:52;35.07;;;14.20;;
66739;SDS011;53653;52.188;8.602;2024-02-21T03:54:18;32.40;;;12.57;;
66739;SDS011;53653;52.188;8.602;2024-02-21T03:56:44;38.25;;;13.48;;
66739;SDS011;53653;52.188;8.602;2024-02-21T03:59:09;30.90;;;11.43;;
66739;SDS011;53653;52.188;8.602;2024-02-21T04:01:35;33.63;;;11.90;;
66739;SDS011;53653;52.188;8.602;2024-02-21T04:04:01;32.47;;;12.77;;
66739;SDS011;53653;52.188;8.602;2024-02-21T04:06:27;32.22;;;12.55;;
66739;SDS011;53653;52.188;8.602;2024-02-21T04:08:52;35.78;;;13.98;;
66739;SDS011;53653;52.188;8.602;2024-02-21T04:11:18;37.37;;;12.83;;
66739;SDS011;53653;52.188;8.602;2024-02-21T04:13:44;40.57;;;13.10;;
66739;SDS011;53653;52.188;8.602;2024-02-21T04:16:14;29.52;;;12.48;;
66739;SDS011;53653;52.188;8.602;2024-02-21T04:18:40;40.67;;;14.13;;
66739;SDS011;53653;52.188;8.602;2024-02-21T04:21:05;35.77;;;13.13;;
66739;SDS011;53653;52.188;8.602;2024-02-21T04:23:31;37.45;;;13.52;;
66739;SDS011;53653;52.188;8.602;2024-02-21T04:25:56;33.07;;;12.67;;
66739;SDS011;53653;52.188;8.602;2024-02-21T04:28:21;37.53;;;12.47;;
66739;SDS011;53653;52.188;8.602;2024-02-21T04:30:47;36.13;;;12.13;;
66739;SDS011;53653;52.188;8.602;2024-02-21T04:33:12;40.30;;;13.57;;
66739;SDS011;53653;52.188;8.602;2024-02-21T04:35:38;37.90;;;13.85;;
66739;SDS011;53653;52.188;8.602;2024-02-21T04:38:04;33.03;;;12.03;;
66739;SDS011;53653;52.188;8.602;2024-02-21T04:40:30;33.28;;;12.48;;
66739;SDS011;53653;52.188;8.602;2024-02-21T04:42:56;35.03;;;13.23;;
66739;SDS011;53653;52.188;8.602;2024-02-21T04:45:22;33.60;;;11.32;;
66739;SDS011;53653;52.188;8.602;2024-02-21T04:47:47;39.23;;;13.37;;
66739;SDS011;53653;52.188;8.602;2024-02-21T04:50:13;41.28;;;14.02;;
66739;SDS011;53653;52.188;8.602;2024-02-21T04:52:38;37.53;;;12.87;;
66739;SDS011;53653;52.188;8.602;2024-02-21T04:55:04;35.27;;;13.23;;
66739;SDS011;53653;52.188;8.602;2024-02-21T04:57:29;35.83;;;12.68;;
66739;SDS011;53653;52.188;8.602;2024-02-21T04:59:55;38.43;;;12.83;;
66739;SDS011;53653;52.188;8.602;2024-02-21T05:02:20;32.60;;;13.07;;
66739;SDS011;53653;52.188;8.602;2024-02-21T05:04:47;33.03;;;13.05;;
66739;SDS011;53653;52.188;8.602;2024-02-21T05:07:13;32.17;;;12.90;;
66739;SDS011;53653;52.188;8.602;2024-02-21T05:09:38;31.10;;;12.65;;
66739;SDS011;53653;52.188;8.602;2024-02-21T05:12:04;37.43;;;14.67;;
66739;SDS011;53653;52.188;8.602;2024-02-21T05:14:29;34.90;;;13.30;;
66739;SDS011;53653;52.188;8.602;2024-02-21T05:16:55;33.63;;;13.30;;
66739;SDS011;53653;52.188;8.602;2024-02-21T05:19:20;32.33;;;12.45;;
66739;SDS011;53653;52.188;8.602;2024-02-21T05:21:46;30.23;;;11.30;;
66739;SDS011;53653;52.188;8.602;2024-02-21T05:24:11;30.30;;;12.63;;
66739;SDS011;53653;52.188;8.602;2024-02-21T05:26:37;38.80;;;13.15;;
66739;SDS011;53653;52.188;8.602;2024-02-21T05:29:03;39.72;;;13.02;;
66739;SDS011;53653;52.188;8.602;2024-02-21T05:34:16;38.78;;;12.07;;
66739;SDS011;53653;52.188;8.602;2024-02-21T05:36:41;31.10;;;12.77;;
66739;SDS011;53653;52.188;8.602;2024-02-21T05:39:07;31.25;;;12.23;;
66739;SDS011;53653;52.188;8.602;2024-02-21T05:41:32;30.33;;;12.10;;
66739;SDS011;53653;52.188;8.602;2024-02-21T05:43:58;36.57;;;12.67;;
66739;SDS011;53653;52.188;8.602;2024-02-21T05:46:23;32.57;;;12.17;;
66739;SDS011;53653;52.188;8.602;2024-02-21T05:48:49;36.60;;;13.13;;
66739;SDS011;53653;52.188;8.602;2024-02-21T05:51:15;31.70;;;14.13;;
66739;SDS011;53653;52.188;8.602;2024-02-21T05:53:40;35.40;;;14.87;;
66739;SDS011;53653;52.188;8.602;2024-02-21T05:56:12;36.20;;;15.10;;
66739;SDS011;53653;52.188;8.602;2024-02-21T05:58:38;35.53;;;14.57;;
66739;SDS011;53653;52.188;8.602;2024-02-21T06:01:04;32.45;;;13.38;;
66739;SDS011;53653;52.188;8.602;2024-02-21T06:03:31;32.63;;;13.37;;
66739;SDS011;53653;52.188;8.602;2024-02-21T06:05:58;44.50;;;14.43;;
66739;SDS011;53653;52.188;8.602;2024-02-21T06:08:24;33.88;;;14.02;;
66739;SDS011;53653;52.188;8.602;2024-02-21T06:10:49;41.17;;;13.63;;
66739;SDS011;53653;52.188;8.602;2024-02-21T06:13:17;39.83;;;14.52;;
66739;SDS011;53653;52.188;8.602;2024-02-21T06:15:42;35.83;;;14.70;;
66739;SDS011;53653;52.188;8.602;2024-02-21T06:18:08;38.65;;;13.90;;
66739;SDS011;53653;52.188;8.602;2024-02-21T06:20:33;37.73;;;14.87;;
66739;SDS011;53653;52.188;8.602;2024-02-21T06:23:01;34.20;;;14.15;;
66739;SDS011;53653;52.188;8.602;2024-02-21T06:25:26;38.00;;;14.67;;
66739;SDS011;53653;52.188;8.602;2024-02-21T06:27:51;34.50;;;14.63;;
66739;SDS011;53653;52.188;8.602;2024-02-21T06:30:17;42.70;;;13.70;;
66739;SDS011;53653;52.188;8.602;2024-02-21T06:32:42;37.73;;;15.73;;
66739;SDS011;53653;52.188;8.602;2024-02-21T06:35:08;32.00;;;12.65;;
66739;SDS011;53653;52.188;8.602;2024-02-21T06:37:33;31.33;;;11.87;;
66739;SDS011;53653;52.188;8.602;2024-02-21T06:39:59;39.57;;;15.87;;
66739;SDS011;53653;52.188;8.602;2024-02-21T06:42:24;39.43;;;13.67;;
66739;SDS011;53653;52.188;8.602;2024-02-21T06:44:50;33.25;;;12.85;;
66739;SDS011;53653;52.188;8.602;2024-02-21T06:47:17;41.50;;;13.52;;
66739;SDS011;53653;52.188;8.602;2024-02-21T06:49:42;37.47;;;13.53;;
66739;SDS011;53653;52.188;8.602;2024-02-21T06:52:07;34.33;;;12.83;;
66739;SDS011;53653;52.188;8.602;2024-02-21T06:54:33;36.60;;;12.00;;
66739;SDS011;53653;52.188;8.602;2024-02-21T06:56:58;35.05;;;12.10;;
66739;SDS011;53653;52.188;8.602;2024-02-21T06:59:24;39.03;;;13.47;;
66739;SDS011;53653;52.188;8.602;2024-02-21T07:01:49;31.23;;;12.20;;
66739;SDS011;53653;52.188;8.602;2024-02-21T07:04:18;36.50;;;13.73;;
66739;SDS011;53653;52.188;8.602;2024-02-21T07:06:44;35.13;;;13.50;;
66739;SDS011;53653;52.188;8.602;2024-02-21T07:09:09;36.17;;;13.57;;
66739;SDS011;53653;52.188;8.602;2024-02-21T07:11:34;36.67;;;13.15;;
66739;SDS011;53653;52.188;8.602;2024-02-21T07:14:00;35.93;;;12.80;;
66739;SDS011;53653;52.188;8.602;2024-02-21T07:16:25;31.03;;;13.97;;
66739;SDS011;53653;52.188;8.602;2024-02-21T07:18:51;33.13;;;11.88;;
66739;SDS011;53653;52.188;8.602;2024-02-21T07:21:17;31.67;;;11.97;;
66739;SDS011;53653;52.188;8.602;2024-02-21T07:23:42;30.53;;;11.00;;
66739;SDS011;53653;52.188;8.602;2024-02-21T07:26:08;29.65;;;11.38;;
66739;SDS011;53653;52.188;8.602;2024-02-21T07:28:33;29.57;;;11.00;;
66739;SDS011;53653;52.188;8.602;2024-02-21T07:30:59;29.00;;;10.97;;
66739;SDS011;53653;52.188;8.602;2024-02-21T07:33:25;30.90;;;11.13;;
66739;SDS011;53653;52.188;8.602;2024-02-21T07:35:50;31.40;;;10.40;;
66739;SDS011;53653;52.188;8.602;2024-02-21T07:38:16;30.47;;;10.83;;
66739;SDS011;53653;52.188;8.602;2024-02-21T07:40:46;30.15;;;9.98;;
66739;SDS011;53653;52.188;8.602;2024-02-21T07:43:11;24.65;;;10.00;;
66739;SDS011;53653;52.188;8.602;2024-02-21T07:45:37;24.93;;;9.70;;
66739;SDS011;53653;52.188;8.602;2024-02-21T07:48:05;26.10;;;9.60;;
66739;SDS011;53653;52.188;8.602;2024-02-21T07:50:30;23.90;;;9.05;;
66739;SDS011;53653;52.188;8.602;2024-02-21T07:52:56;26.50;;;9.20;;
66739;SDS011;53653;52.188;8.602;2024-02-21T07:55:22;23.92;;;8.65;;
66739;SDS011;53653;52.188;8.602;2024-02-21T07:57:47;22.97;;;8.00;;
66739;SDS011;53653;52.188;8.602;2024-02-21T08:00:13;24.37;;;9.40;;
66739;SDS011;53653;52.188;8.602;2024-02-21T08:02:45;26.85;;;8.60;;
66739;SDS011;53653;52.188;8.602;2024-02-21T08:05:11;20.35;;;8.18;;
66739;SDS011;53653;52.188;8.602;2024-02-21T08:07:39;21.65;;;7.60;;
66739;SDS011;53653;52.188;8.602;2024-02-21T08:10:05;19.93;;;8.13;;
66739;SDS011;53653;52.188;8.602;2024-02-21T08:12:34;20.50;;;7.28;;
66739;SDS011;53653;52.188;8.602;2024-02-21T08:15:00;21.95;;;7.47;;
66739;SDS011;53653;52.188;8.602;2024-02-21T08:17:26;22.77;;;7.90;;
66739;SDS011;53653;52.188;8.602;2024-02-21T08:19:51;25.30;;;8.23;;
66739;SDS011;53653;52.188;8.602;2024-02-21T08:22:17;23.63;;;7.60;;
66739;SDS011;53653;52.188;8.602;2024-02-21T08:24:42;17.97;;;6.23;;
66739;SDS011;53653;52.188;8.602;2024-02-21T08:27:08;16.47;;;6.70;;
66739;SDS011;53653;52.188;8.602;2024-02-21T08:29:34;18.00;;;6.28;;
66739;SDS011;53653;52.188;8.602;2024-02-21T08:32:00;22.30;;;6.33;;
66739;SDS011;53653;52.188;8.602;2024-02-21T08:34:25;17.77;;;6.90;;
66739;SDS011;53653;52.188;8.602;2024-02-21T08:36:50;23.42;;;6.82;;
66739;SDS011;53653;52.188;8.602;2024-02-21T08:39:16;20.03;;;6.10;;
66739;SDS011;53653;52.188;8.602;2024-02-21T08:41:41;15.40;;;5.50;;
66739;SDS011;53653;52.188;8.602;2024-02-21T08:44:07;21.15;;;6.10;;
66739;SDS011;53653;52.188;8.602;2024-02-21T08:46:33;19.70;;;6.03;;
66739;SDS011;53653;52.188;8.602;2024-02-21T08:48:58;16.67;;;5.65;;
66739;SDS011;53653;52.188;8.602;2024-02-21T08:51:24;18.37;;;5.53;;
66739;SDS011;53653;52.188;8.602;2024-02-21T08:53:49;15.47;;;6.00;;
66739;SDS011;53653;52.188;8.602;2024-02-21T08:56:15;16.30;;;5.93;;
66739;SDS011;53653;52.188;8.602;2024-02-21T08:58:41;21.33;;;6.27;;
66739;SDS011;53653;52.188;8.602;2024-02-21T09:01:07;18.35;;;6.68;;
66739;SDS011;53653;52.188;8.602;2024-02-21T09:03:36;15.27;;;5.75;;
66739;SDS011;53653;52.188;8.602;2024-02-21T09:06:03;14.43;;;5.60;;
66739;SDS011;53653;52.188;8.602;2024-02-21T09:08:29;19.02;;;5.65;;
66739;SDS011;53653;52.188;8.602;2024-02-21T09:10:55;20.60;;;6.73;;
66739;SDS011;53653;52.188;8.602;2024-02-21T09:13:20;13.07;;;4.77;;
66739;SDS011;53653;52.188;8.602;2024-02-21T09:15:46;13.83;;;4.87;;
66739;SDS011;53653;52.188;8.602;2024-02-21T09:18:13;15.00;;;5.18;;
66739;SDS011;53653;52.188;8.602;2024-02-21T09:20:38;18.73;;;5.13;;
66739;SDS011;53653;52.188;8.602;2024-02-21T09:23:03;16.00;;;4.95;;
66739;SDS011;53653;52.188;8.602;2024-02-21T09:25:29;12.80;;;4.77;;
66739;SDS011;53653;52.188;8.602;2024-02-21T09:27:55;15.52;;;5.05;;
66739;SDS011;53653;52.188;8.602;2024-02-21T09:30:21;14.60;;;4.30;;
66739;SDS011;53653;52.188;8.602;2024-02-21T09:32:46;14.03;;;4.33;;
66739;SDS011;53653;52.188;8.602;2024-02-21T09:35:12;10.77;;;4.50;;
66739;SDS011;53653;52.188;8.602;2024-02-21T09:37:38;14.57;;;5.07;;
66739;SDS011;53653;52.188;8.602;2024-02-21T09:40:04;14.75;;;4.60;;
66739;SDS011;53653;52.188;8.602;2024-02-21T09:42:37;18.90;;;5.45;;
66739;SDS011;53653;52.188;8.602;2024-02-21T09:45:08;15.77;;;4.63;;
66739;SDS011;53653;52.188;8.602;2024-02-21T09:50:18;14.13;;;4.67;;
66739;SDS011;53653;52.188;8.602;2024-02-21T09:52:46;12.73;;;4.45;;
66739;SDS011;53653;52.188;8.602;2024-02-21T09:55:13;12.43;;;4.60;;
66739;SDS011;53653;52.188;8.602;2024-02-21T09:57:40;11.35;;;3.80;;
66739;SDS011;53653;52.188;8.602;2024-02-21T10:00:06;12.30;;;3.97;;
66739;SDS011;53653;52.188;8.602;2024-02-21T10:02:39;11.43;;;3.92;;
66739;SDS011;53653;52.188;8.602;2024-02-21T10:05:05;12.13;;;4.03;;
66739;SDS011;53653;52.188;8.602;2024-02-21T10:07:33;10.70;;;3.40;;
66739;SDS011;53653;52.188;8.602;2024-02-21T10:10:04;12.67;;;4.20;;
66739;SDS011;53653;52.188;8.602;2024-02-21T10:12:30;10.57;;;3.58;;
66739;SDS011;53653;52.188;8.602;2024-02-21T10:15:02;12.07;;;3.90;;
66739;SDS011;53653;52.188;8.602;2024-02-21T10:17:29;11.27;;;4.07;;
66739;SDS011;53653;52.188;8.602;2024-02-21T10:19:54;14.77;;;3.67;;
66739;SDS011;53653;52.188;8.602;2024-02-21T10:22:20;12.27;;;3.10;;
66739;SDS011;53653;52.188;8.602;2024-02-21T10:24:46;11.82;;;3.60;;
66739;SDS011;53653;52.188;8.602;2024-02-21T10:27:12;10.97;;;3.30;;
66739;SDS011;53653;52.188;8.602;2024-02-21T10:29:37;11.55;;;3.50;;
66739;SDS011;53653;52.188;8.602;2024-02-21T10:32:10;9.83;;;3.07;;
66739;SDS011;53653;52.188;8.602;2024-02-21T10:34:38;9.93;;;3.20;;
66739;SDS011;53653;52.188;8.602;2024-02-21T10:37:04;8.88;;;2.90;;
66739;SDS011;53653;52.188;8.602;2024-02-21T10:39:32;10.10;;;3.30;;
66739;SDS011;53653;52.188;8.602;2024-02-21T10:42:00;12.02;;;4.22;;
66739;SDS011;53653;52.188;8.602;2024-02-21T10:44:29;12.53;;;4.40;;
66739;SDS011;53653;52.188;8.602;2024-02-21T10:46:56;8.65;;;3.05;;
66739;SDS011;53653;52.188;8.602;2024-02-21T10:49:23;10.82;;;3.38;;
66739;SDS011;53653;52.188;8.602;2024-02-21T10:51:50;10.55;;;3.30;;
66739;SDS011;53653;52.188;8.602;2024-02-21T10:57:25;10.73;;;3.07;;
66739;SDS011;53653;52.188;8.602;2024-02-21T10:59:53;12.50;;;4.22;;
66739;SDS011;53653;52.188;8.602;2024-02-21T11:02:19;11.45;;;3.47;;
66739;SDS011;53653;52.188;8.602;2024-02-21T11:04:45;11.63;;;3.60;;
66739;SDS011;53653;52.188;8.602;2024-02-21T11:07:12;10.77;;;4.25;;
66739;SDS011;53653;52.188;8.602;2024-02-21T11:09:39;12.27;;;3.77;;
66739;SDS011;53653;52.188;8.602;2024-02-21T11:12:05;10.35;;;3.88;;
66739;SDS011;53653;52.188;8.602;2024-02-21T11:14:31;7.97;;;3.53;;
66739;SDS011;53653;52.188;8.602;2024-02-21T11:16:57;11.73;;;4.03;;
66739;SDS011;53653;52.188;8.602;2024-02-21T11:19:27;12.50;;;3.88;;
66739;SDS011;53653;52.188;8.602;2024-02-21T11:21:56;10.90;;;4.18;;
66739;SDS011;53653;52.188;8.602;2024-02-21T11:24:26;14.87;;;5.27;;
66739;SDS011;53653;52.188;8.602;2024-02-21T11:27:18;13.90;;;5.40;;
66739;SDS011;53653;52.188;8.602;2024-02-21T11:29:45;14.88;;;5.47;;
66739;SDS011;53653;52.188;8.602;2024-02-21T11:32:15;14.48;;;5.45;;
66739;SDS011;53653;52.188;8.602;2024-02-21T11:37:24;14.30;;;5.33;;
66739;SDS011;53653;52.188;8.602;2024-02-21T11:39:50;17.70;;;5.35;;
66739;SDS011;53653;52.188;8.602;2024-02-21T11:42:18;17.40;;;5.30;;
66739;SDS011;53653;52.188;8.602;2024-02-21T11:44:43;13.77;;;5.13;;
66739;SDS011;53653;52.188;8.602;2024-02-21T11:47:09;15.43;;;5.10;;
66739;SDS011;53653;52.188;8.602;2024-02-21T11:49:39;14.07;;;5.63;;
66739;SDS011;53653;52.188;8.602;2024-02-21T11:52:08;12.45;;;4.97;;
66739;SDS011;53653;52.188;8.602;2024-02-21T11:54:34;14.53;;;6.07;;
66739;SDS011;53653;52.188;8.602;2024-02-21T11:57:00;17.80;;;6.30;;
66739;SDS011;53653;52.188;8.602;2024-02-21T11:59:26;14.90;;;5.97;;
66739;SDS011;53653;52.188;8.602;2024-02-21T12:01:52;16.73;;;5.93;;
66739;SDS011;53653;52.188;8.602;2024-02-21T12:04:18;18.65;;;6.05;;
66739;SDS011;53653;52.188;8.602;2024-02-21T12:06:45;15.23;;;6.47;;
66739;SDS011;53653;52.188;8.602;2024-02-21T12:09:17;14.57;;;5.28;;
66739;SDS011;53653;52.188;8.602;2024-02-21T12:11:45;14.23;;;4.63;;
66739;SDS011;53653;52.188;8.602;2024-02-21T12:14:21;19.98;;;5.30;;
66739;SDS011;53653;52.188;8.602;2024-02-21T12:16:47;16.88;;;7.00;;
66739;SDS011;53653;52.188;8.602;2024-02-21T12:19:13;15.40;;;7.07;;
66739;SDS011;53653;52.188;8.602;2024-02-21T12:21:42;17.07;;;6.93;;
66739;SDS011;53653;52.188;8.602;2024-02-21T12:24:14;17.70;;;6.35;;
66739;SDS011;53653;52.188;8.602;2024-02-21T12:26:40;14.98;;;5.90;;
66739;SDS011;53653;52.188;8.602;2024-02-21T12:29:06;16.20;;;6.20;;
66739;SDS011;53653;52.188;8.602;2024-02-21T12:31:35;15.27;;;5.93;;
66739;SDS011;53653;52.188;8.602;2024-02-21T12:34:01;14.88;;;5.50;;
66739;SDS011;53653;52.188;8.602;2024-02-21T12:36:27;14.13;;;4.97;;
66739;SDS011;53653;52.188;8.602;2024-02-21T12:38:52;15.75;;;5.60;;
66739;SDS011;53653;52.188;8.602;2024-02-21T12:41:17;19.27;;;6.03;;
66739;SDS011;53653;52.188;8.602;2024-02-21T12:43:43;14.17;;;5.70;;
66739;SDS011;53653;52.188;8.602;2024-02-21T12:46:08;16.50;;;5.97;;
66739;SDS011;53653;52.188;8.602;2024-02-21T12:48:34;16.60;;;5.85;;
66739;SDS011;53653;52.188;8.602;2024-02-21T12:50:59;16.67;;;5.37;;
66739;SDS011;53653;52.188;8.602;2024-02-21T12:53:25;18.70;;;5.73;;
66739;SDS011;53653;52.188;8.602;2024-02-21T12:55:51;21.10;;;5.70;;
66739;SDS011;53653;52.188;8.602;2024-02-21T12:58:17;18.23;;;6.03;;
66739;SDS011;53653;52.188;8.602;2024-02-21T13:00:42;12.83;;;4.53;;
66739;SDS011;53653;52.188;8.602;2024-02-21T13:03:08;14.93;;;4.93;;
66739;SDS011;53653;52.188;8.602;2024-02-21T13:05:37;19.13;;;7.05;;
66739;SDS011;53653;52.188;8.602;2024-02-21T13:08:04;15.30;;;5.43;;
66739;SDS011;53653;52.188;8.602;2024-02-21T13:10:31;19.55;;;5.63;;
66739;SDS011;53653;52.188;8.602;2024-02-21T13:12:56;17.80;;;5.77;;
66739;SDS011;53653;52.188;8.602;2024-02-21T13:15:21;19.90;;;6.27;;
66739;SDS011;53653;52.188;8.602;2024-02-21T13:17:47;19.73;;;6.10;;
66739;SDS011;53653;52.188;8.602;2024-02-21T13:20:12;14.88;;;5.78;;
66739;SDS011;53653;52.188;8.602;2024-02-21T13:22:38;17.50;;;6.30;;
66739;SDS011;53653;52.188;8.602;2024-02-21T13:25:04;14.20;;;5.67;;
66739;SDS011;53653;52.188;8.602;2024-02-21T13:27:32;21.98;;;6.30;;
66739;SDS011;53653;52.188;8.602;2024-02-21T13:29:58;14.35;;;4.88;;
66739;SDS011;53653;52.188;8.602;2024-02-21T13:32:23;13.10;;;4.83;;
66739;SDS011;53653;52.188;8.602;2024-02-21T13:34:49;12.90;;;5.17;;
66739;SDS011;53653;52.188;8.602;2024-02-21T13:37:17;14.32;;;5.18;;
66739;SDS011;53653;52.188;8.602;2024-02-21T13:39:43;16.20;;;4.97;;
66739;SDS011;53653;52.188;8.602;2024-02-21T13:42:08;18.77;;;5.83;;
66739;SDS011;53653;52.188;8.602;2024-02-21T13:44:34;16.65;;;5.68;;
66739;SDS011;53653;52.188;8.602;2024-02-21T13:47:00;18.00;;;5.57;;
66739;SDS011;53653;52.188;8.602;2024-02-21T13:49:25;19.65;;;5.32;;
66739;SDS011;53653;52.188;8.602;2024-02-21T13:51:51;14.20;;;5.50;;
66739;SDS011;53653;52.188;8.602;2024-02-21T13:54:16;14.73;;;5.30;;
66739;SDS011;53653;52.188;8.602;2024-02-21T13:56:44;13.65;;;5.55;;
66739;SDS011;53653;52.188;8.602;2024-02-21T13:59:11;14.35;;;5.38;;
66739;SDS011;53653;52.188;8.602;2024-02-21T14:01:38;13.43;;;5.18;;
66739;SDS011;53653;52.188;8.602;2024-02-21T14:04:03;15.00;;;5.00;;
66739;SDS011;53653;52.188;8.602;2024-02-21T14:06:29;20.60;;;5.33;;
66739;SDS011;53653;52.188;8.602;2024-02-21T14:08:54;10.10;;;2.93;;
66739;SDS011;53653;52.188;8.602;2024-02-21T14:11:20;13.95;;;4.00;;
66739;SDS011;53653;52.188;8.602;2024-02-21T14:13:45;9.67;;;3.07;;
66739;SDS011;53653;52.188;8.602;2024-02-21T14:16:11;10.27;;;3.10;;
66739;SDS011;53653;52.188;8.602;2024-02-21T14:18:42;14.88;;;4.30;;
66739;SDS011;53653;52.188;8.602;2024-02-21T14:21:08;10.00;;;3.22;;
66739;SDS011;53653;52.188;8.602;2024-02-21T14:23:36;12.53;;;4.00;;
66739;SDS011;53653;52.188;8.602;2024-02-21T14:26:02;9.80;;;3.05;;
66739;SDS011;53653;52.188;8.602;2024-02-21T14:28:28;9.13;;;3.38;;
66739;SDS011;53653;52.188;8.602;2024-02-21T14:30:54;12.10;;;3.80;;
66739;SDS011;53653;52.188;8.602;2024-02-21T14:33:23;12.82;;;3.38;;
66739;SDS011;53653;52.188;8.602;2024-02-21T14:35:49;11.73;;;4.27;;
66739;SDS011;53653;52.188;8.602;2024-02-21T14:38:14;13.27;;;4.32;;
66739;SDS011;53653;52.188;8.602;2024-02-21T14:40:40;12.90;;;3.53;;